Time;durP1;ratioP1;P1;durP2;ratioP2;P2;SDS_P1;SDS_P2;PMS_P1;PMS_P2;Temp;Humidity;BMP_temperature;BMP_pressure;BME280_temperature;BME280_humidity;BME280_pressure;Samples;Min_cycle;Max_cycle;Signal;HPM_P1;HPM_P2
2023/01/09 00:02:24;;;;;;;;;;;7.60;99.90;;;;;;5035550;28;19921;-59
2023/01/09 00:04:50;;;;;;;;;;;7.60;99.90;;;;;;5035030;28;19975;-59
2023/01/09 00:07:17;;;;;;;;;;;7.60;99.90;;;;;;5034834;28;19921;-59
2023/01/09 00:09:43;;;;;;;;;;;7.60;99.90;;;;;;5035371;28;19975;-58
2023/01/09 00:12:11;;;;;;;;;;;7.60;99.90;;;;;;5027316;28;19971;-59
2023/01/09 00:14:38;;;;;;;;;;;7.60;99.90;;;;;;5023215;28;20369;-61
2023/01/09 00:17:04;;;;;;;;;;;7.50;99.90;;;;;;5015058;28;19921;-57
2023/01/09 00:19:30;;;;;;;;;;;7.50;99.90;;;;;;5015520;28;19975;-58
2023/01/09 00:21:57;;;;;;;;;;;7.50;99.90;;;;;;5015083;28;19964;-56
2023/01/09 00:24:23;;;;;;;;;;;7.40;99.90;;;;;;5015517;28;20385;-55
2023/01/09 00:26:50;;;;;;;;;;;7.40;99.90;;;;;;5015159;28;19941;-58
2023/01/09 00:29:18;;;;;;;;;;;7.40;99.90;;;;;;5015002;28;19967;-57
2023/01/09 00:31:44;;;;;;;;;;;7.40;99.90;;;;;;5014781;28;19925;-59
2023/01/09 00:34:11;;;;;;;;;;;7.30;99.90;;;;;;5015417;28;19925;-56
2023/01/09 00:36:38;;;;;;;;;;;7.30;99.90;;;;;;5014575;28;20347;-58
2023/01/09 00:39:04;;;;;;;;;;;7.30;99.90;;;;;;5014739;28;19975;-59
2023/01/09 00:41:34;;;;;;;;;;;7.20;99.90;;;;;;5017426;28;19952;-56
2023/01/09 00:44:05;;;;;;;;;;;7.20;99.90;;;;;;5026180;28;19975;-58
2023/01/09 00:46:34;;;;;;;;;;;7.10;99.90;;;;;;5034176;28;19921;-54
2023/01/09 00:49:02;;;;;;;;;;;7.10;99.90;;;;;;5034095;28;19921;-56
2023/01/09 00:51:28;;;;;;;;;;;7.00;99.90;;;;;;5034292;28;19921;-57
2023/01/09 00:53:55;;;;;;;;;;;7.00;99.90;;;;;;5034294;28;20423;-59
2023/01/09 00:56:22;;;;;;;;;;;7.00;99.90;;;;;;5034022;28;20442;-57
2023/01/09 00:58:49;;;;;;;;;;;7.00;99.90;;;;;;5034006;28;19921;-58
2023/01/09 01:01:16;;;;;;;;;;;7.00;99.90;;;;;;5034232;28;20434;-53
2023/01/09 01:03:44;;;;;;;;;;;7.00;99.90;;;;;;5034115;28;19967;-56
2023/01/09 01:08:55;;;;;;;;;;;6.90;99.90;;;;;;5033850;28;20438;-56
2023/01/09 01:11:22;;;;;;;;;;;6.90;99.90;;;;;;5032036;28;19921;-57
2023/01/09 01:13:49;;;;;;;;;;;6.90;99.90;;;;;;5022258;28;19921;-58
2023/01/09 01:16:17;;;;;;;;;;;6.80;99.90;;;;;;5013870;28;19976;-58
2023/01/09 01:18:45;;;;;;;;;;;6.80;99.90;;;;;;5013762;28;19921;-58
2023/01/09 01:21:12;;;;;;;;;;;6.80;99.90;;;;;;5013883;28;19968;-58
2023/01/09 01:23:39;;;;;;;;;;;6.80;99.90;;;;;;5013768;28;19921;-59
2023/01/09 01:26:06;;;;;;;;;;;6.80;99.90;;;;;;5013864;28;20371;-59
2023/01/09 01:28:32;;;;;;;;;;;6.70;99.90;;;;;;5013667;28;19930;-58
2023/01/09 01:30:59;;;;;;;;;;;6.80;99.90;;;;;;5013921;28;20265;-57
2023/01/09 01:33:25;;;;;;;;;;;6.70;99.90;;;;;;5013456;28;19922;-57
2023/01/09 01:36:00;;;;;;;;;;;6.70;99.90;;;;;;5013906;28;19999;-57
2023/01/09 01:38:27;;;;;;;;;;;6.70;99.90;;;;;;5013597;28;20316;-58
2023/01/09 01:40:54;;;;;;;;;;;6.70;99.90;;;;;;5013991;28;19922;-58
2023/01/09 01:43:21;;;;;;;;;;;6.70;99.90;;;;;;5023057;28;19921;-58
2023/01/09 01:45:47;;;;;;;;;;;6.60;99.90;;;;;;5033350;28;19925;-59
2023/01/09 01:48:16;;;;;;;;;;;6.70;99.90;;;;;;5033215;28;19921;-56
2023/01/09 01:50:44;;;;;;;;;;;6.60;99.90;;;;;;5033247;28;19925;-58
2023/01/09 01:53:13;;;;;;;;;;;6.60;99.90;;;;;;5033069;28;19921;-56
2023/01/09 01:55:42;;;;;;;;;;;6.60;99.90;;;;;;5032963;28;19920;-58
2023/01/09 01:58:10;;;;;;;;;;;6.70;99.90;;;;;;5032546;28;19921;-56
2023/01/09 02:00:38;;;;;;;;;;;6.70;99.90;;;;;;5032865;28;19921;-58
2023/01/09 02:03:06;;;;;;;;;;;6.70;99.90;;;;;;5032943;28;19921;-58
2023/01/09 02:05:32;;;;;;;;;;;6.60;99.90;;;;;;5032688;28;19990;-58
2023/01/09 02:07:59;;;;;;;;;;;6.60;99.90;;;;;;5032837;28;19964;-57
2023/01/09 02:10:27;;;;;;;;;;;6.60;99.90;;;;;;5032901;28;19967;-58
2023/01/09 02:12:54;;;;;;;;;;;6.60;99.90;;;;;;5024360;28;19921;-58
2023/01/09 02:15:20;;;;;;;;;;;6.50;99.90;;;;;;5014843;28;19967;-58
2023/01/09 02:18:06;;;;;;;;;;;6.50;99.90;;;;;;5012856;28;19975;-57
2023/01/09 02:20:39;;;;;;;;;;;6.50;99.90;;;;;;5012634;28;19980;-58
2023/01/09 02:23:15;;;;;;;;;;;6.50;99.90;;;;;;5012822;28;19921;-58
2023/01/09 02:25:56;;;;;;;;;;;6.50;99.90;;;;;;5012802;28;19921;-58
2023/01/09 02:28:32;;;;;;;;;;;6.50;99.90;;;;;;5012788;28;19925;-58
2023/01/09 02:31:03;;;;;;;;;;;6.50;99.90;;;;;;5012913;28;19928;-58
2023/01/09 02:33:34;;;;;;;;;;;6.50;99.90;;;;;;5012834;28;19925;-58
2023/01/09 02:36:19;;;;;;;;;;;6.50;99.90;;;;;;5012482;28;19922;-57
2023/01/09 02:38:50;;;;;;;;;;;6.50;99.90;;;;;;5012506;28;19980;-58
2023/01/09 02:41:19;;;;;;;;;;;6.50;99.90;;;;;;5013802;28;19922;-58
2023/01/09 02:43:45;;;;;;;;;;;6.50;99.90;;;;;;5024063;28;19975;-58
2023/01/09 02:46:18;;;;;;;;;;;6.50;99.90;;;;;;5031281;28;19991;-58
2023/01/09 02:48:45;;;;;;;;;;;6.50;99.90;;;;;;5032471;28;19972;-58
2023/01/09 02:51:15;;;;;;;;;;;6.40;99.90;;;;;;5032163;28;19952;-58
2023/01/09 02:53:50;;;;;;;;;;;6.40;99.90;;;;;;5032365;28;20051;-58
2023/01/09 02:56:26;;;;;;;;;;;6.40;99.90;;;;;;5032197;28;19987;-58
2023/01/09 02:59:05;;;;;;;;;;;6.40;99.90;;;;;;5032321;28;20384;-59
2023/01/09 03:01:39;;;;;;;;;;;6.40;99.90;;;;;;5032048;28;19943;-59
2023/01/09 03:04:09;;;;;;;;;;;6.40;99.90;;;;;;5032399;28;20362;-58
2023/01/09 03:06:41;;;;;;;;;;;6.40;99.90;;;;;;5032181;28;19921;-57
2023/01/09 03:09:12;;;;;;;;;;;6.40;99.90;;;;;;5032281;28;20285;-58
2023/01/09 03:11:40;;;;;;;;;;;6.40;99.90;;;;;;5027865;28;19984;-58
2023/01/09 03:14:09;;;;;;;;;;;6.40;99.90;;;;;;5020225;28;20339;-58
2023/01/09 03:16:37;;;;;;;;;;;6.40;99.90;;;;;;5012344;28;20151;-59
2023/01/09 03:19:05;;;;;;;;;;;6.40;99.90;;;;;;5012361;28;20331;-59
2023/01/09 03:21:33;;;;;;;;;;;6.40;99.90;;;;;;5012495;28;19980;-58
2023/01/09 03:24:00;;;;;;;;;;;6.50;99.90;;;;;;5012031;28;20380;-57
2023/01/09 03:26:28;;;;;;;;;;;6.50;99.90;;;;;;5012011;28;19921;-58
2023/01/09 03:28:55;;;;;;;;;;;6.50;99.90;;;;;;5012118;28;19964;-58
2023/01/09 03:31:21;;;;;;;;;;;6.50;99.90;;;;;;5012408;28;19929;-57
2023/01/09 03:33:49;;;;;;;;;;;6.50;99.90;;;;;;5012139;28;20380;-58
2023/01/09 03:36:17;;;;;;;;;;;6.50;99.90;;;;;;5012071;28;19922;-57
2023/01/09 03:38:44;;;;;;;;;;;6.50;99.90;;;;;;5012296;28;20373;-58
2023/01/09 03:41:10;;;;;;;;;;;6.50;99.90;;;;;;5012106;28;19921;-57
2023/01/09 03:43:37;;;;;;;;;;;6.50;99.90;;;;;;5023631;28;19990;-58
2023/01/09 03:46:04;;;;;;;;;;;6.60;99.90;;;;;;5031694;28;19979;-57
2023/01/09 03:48:30;;;;;;;;;;;6.60;99.90;;;;;;5031431;28;19967;-58
2023/01/09 03:50:58;;;;;;;;;;;6.60;99.90;;;;;;5031621;28;20343;-57
2023/01/09 03:53:26;;;;;;;;;;;6.50;99.90;;;;;;5031673;28;19979;-58
2023/01/09 03:55:53;;;;;;;;;;;6.50;99.90;;;;;;5030465;28;19978;-59
2023/01/09 03:58:20;;;;;;;;;;;6.50;99.90;;;;;;5034022;28;19929;-59
2023/01/09 04:00:48;;;;;;;;;;;6.50;99.90;;;;;;5035260;28;19921;-58
2023/01/09 04:03:15;;;;;;;;;;;6.50;99.90;;;;;;5035995;28;19956;-58
2023/01/09 04:05:43;;;;;;;;;;;6.50;99.90;;;;;;5035649;28;19963;-56
2023/01/09 04:08:11;;;;;;;;;;;6.50;99.90;;;;;;5035556;28;19921;-56
2023/01/09 04:10:37;;;;;;;;;;;6.50;99.90;;;;;;5036223;28;19995;-58
2023/01/09 04:13:04;;;;;;;;;;;6.50;99.90;;;;;;5026979;28;19925;-56
2023/01/09 04:15:30;;;;;;;;;;;6.50;99.90;;;;;;5015974;28;19922;-58
2023/01/09 04:17:57;;;;;;;;;;;6.40;99.90;;;;;;5015375;28;19922;-57
2023/01/09 04:20:23;;;;;;;;;;;6.40;99.90;;;;;;5015231;28;19979;-58
2023/01/09 04:22:50;;;;;;;;;;;6.30;99.90;;;;;;5015276;28;19921;-53
2023/01/09 04:25:18;;;;;;;;;;;6.30;99.90;;;;;;5015114;28;19972;-58
2023/01/09 04:27:44;;;;;;;;;;;6.30;99.90;;;;;;5015025;28;19925;-58
2023/01/09 04:30:11;;;;;;;;;;;6.20;99.90;;;;;;5014980;28;19925;-57
2023/01/09 04:32:37;;;;;;;;;;;6.20;99.90;;;;;;5014840;28;19921;-58
2023/01/09 04:35:04;;;;;;;;;;;6.10;99.90;;;;;;5014691;28;19921;-58
2023/01/09 04:37:31;;;;;;;;;;;6.00;99.90;;;;;;5014516;28;20372;-58
2023/01/09 04:39:57;;;;;;;;;;;5.90;99.90;;;;;;5014952;28;19952;-57
2023/01/09 04:42:25;;;;;;;;;;;5.90;99.90;;;;;;5023072;28;19925;-58
2023/01/09 04:44:53;;;;;;;;;;;5.80;99.90;;;;;;5028520;28;20404;-55
2023/01/09 04:47:20;;;;;;;;;;;5.80;99.90;;;;;;5034192;28;20020;-58
2023/01/09 04:49:46;;;;;;;;;;;5.70;99.90;;;;;;5034539;28;19971;-58
2023/01/09 04:52:13;;;;;;;;;;;5.60;99.90;;;;;;5034544;28;19986;-56
2023/01/09 04:54:39;;;;;;;;;;;5.60;99.90;;;;;;5034475;28;19967;-57
2023/01/09 04:57:06;;;;;;;;;;;5.50;99.90;;;;;;5034085;28;19925;-58
2023/01/09 04:59:34;;;;;;;;;;;5.50;99.90;;;;;;5034266;28;19925;-57
2023/01/09 05:02:00;;;;;;;;;;;5.50;99.90;;;;;;5033927;28;20396;-52
2023/01/09 05:04:27;;;;;;;;;;;5.50;99.90;;;;;;5034168;28;19928;-58
2023/01/09 05:06:54;;;;;;;;;;;5.40;99.90;;;;;;5033911;28;19979;-57
2023/01/09 05:09:20;;;;;;;;;;;5.50;99.90;;;;;;5033485;28;19936;-58
2023/01/09 05:11:47;;;;;;;;;;;5.40;99.90;;;;;;5028282;28;19927;-57
2023/01/09 05:14:13;;;;;;;;;;;5.40;99.90;;;;;;5022200;28;19921;-55
2023/01/09 05:16:41;;;;;;;;;;;5.50;99.90;;;;;;5013787;28;19925;-57
2023/01/09 05:19:08;;;;;;;;;;;5.40;99.90;;;;;;5014049;28;19984;-57
2023/01/09 05:21:34;;;;;;;;;;;5.40;99.90;;;;;;5013964;28;19926;-57
2023/01/09 05:24:01;;;;;;;;;;;5.50;99.90;;;;;;5013784;28;19921;-55
2023/01/09 05:26:28;;;;;;;;;;;5.50;99.90;;;;;;5013461;28;19941;-53
2023/01/09 05:28:56;;;;;;;;;;;5.50;99.90;;;;;;5013770;28;20380;-53
2023/01/09 05:31:23;;;;;;;;;;;5.60;99.90;;;;;;5013683;28;20015;-55
2023/01/09 05:33:50;;;;;;;;;;;5.60;99.90;;;;;;5013698;28;19983;-56
2023/01/09 05:36:17;;;;;;;;;;;5.70;99.90;;;;;;5013552;28;20411;-57
2023/01/09 05:38:44;;;;;;;;;;;5.70;99.90;;;;;;5013530;28;19991;-58
2023/01/09 05:41:10;;;;;;;;;;;5.70;99.90;;;;;;5013682;28;20332;-58
2023/01/09 05:43:37;;;;;;;;;;;5.70;99.90;;;;;;5025015;28;19967;-57
2023/01/09 05:46:03;;;;;;;;;;;5.70;99.90;;;;;;5033065;28;19925;-58
2023/01/09 05:48:30;;;;;;;;;;;5.80;99.90;;;;;;5033456;28;19925;-58
2023/01/09 05:50:58;;;;;;;;;;;5.80;99.90;;;;;;5033129;28;19924;-56
2023/01/09 05:53:24;;;;;;;;;;;5.80;99.90;;;;;;5033352;28;19928;-58
2023/01/09 05:55:52;;;;;;;;;;;5.80;99.90;;;;;;5033139;28;19925;-58
2023/01/09 05:58:18;;;;;;;;;;;5.90;99.90;;;;;;5033011;28;19975;-57
2023/01/09 06:00:45;;;;;;;;;;;5.90;99.90;;;;;;5024956;28;19921;-58
2023/01/09 06:03:11;;;;;;;;;;;5.90;99.90;;;;;;5017925;28;19984;-55
2023/01/09 06:05:38;;;;;;;;;;;5.90;99.90;;;;;;5024109;28;19921;-59
2023/01/09 06:08:07;;;;;;;;;;;5.90;99.90;;;;;;5024313;28;19921;-59
2023/01/09 06:10:33;;;;;;;;;;;5.90;99.90;;;;;;5020883;28;19980;-58
2023/01/09 06:13:00;;;;;;;;;;;5.90;99.90;;;;;;5021024;28;19921;-58
2023/01/09 06:15:26;;;;;;;;;;;5.90;99.90;;;;;;5027246;28;19982;-57
2023/01/09 06:17:53;;;;;;;;;;;5.90;99.90;;;;;;5026705;28;19925;-58
2023/01/09 06:20:19;;;;;;;;;;;5.90;99.90;;;;;;5032269;28;19928;-58
2023/01/09 06:22:46;;;;;;;;;;;5.90;99.90;;;;;;5032453;28;19925;-63
2023/01/09 06:25:14;;;;;;;;;;;5.80;99.90;;;;;;5026126;28;19974;-61
2023/01/09 06:27:40;;;;;;;;;;;5.90;99.90;;;;;;5024699;28;20466;-62
2023/01/09 06:30:07;;;;;;;;;;;5.90;99.90;;;;;;5025984;28;19921;-62
2023/01/09 06:32:34;;;;;;;;;;;5.90;99.90;;;;;;5024029;28;19967;-62
2023/01/09 06:35:01;;;;;;;;;;;5.90;99.90;;;;;;5032419;28;19924;-61
2023/01/09 06:37:28;;;;;;;;;;;5.90;99.90;;;;;;5012564;28;19980;-61
2023/01/09 06:39:54;;;;;;;;;;;5.90;99.90;;;;;;5012435;28;19921;-62
2023/01/09 06:42:22;;;;;;;;;;;5.90;99.90;;;;;;5011716;28;20456;-59
2023/01/09 06:44:49;;;;;;;;;;;5.90;99.90;;;;;;5011988;28;19929;-60
2023/01/09 06:47:15;;;;;;;;;;;5.90;99.90;;;;;;5011826;28;19925;-62
2023/01/09 06:49:42;;;;;;;;;;;5.90;99.90;;;;;;5012409;28;20335;-62
2023/01/09 06:52:08;;;;;;;;;;;5.90;99.90;;;;;;5019896;28;19921;-61
2023/01/09 06:54:35;;;;;;;;;;;5.80;99.90;;;;;;5020240;28;19922;-61
2023/01/09 06:57:01;;;;;;;;;;;5.90;99.90;;;;;;5011595;28;20359;-62
2023/01/09 06:59:29;;;;;;;;;;;5.80;99.90;;;;;;5012076;28;19929;-61
2023/01/09 07:01:56;;;;;;;;;;;5.80;99.90;;;;;;5012118;28;19925;-60
2023/01/09 07:04:22;;;;;;;;;;;5.80;99.90;;;;;;5011612;28;19929;-62
2023/01/09 07:06:49;;;;;;;;;;;5.90;99.90;;;;;;5011686;28;20327;-63
2023/01/09 07:09:16;;;;;;;;;;;5.80;99.90;;;;;;5011772;28;19921;-62
2023/01/09 07:11:42;;;;;;;;;;;5.90;99.90;;;;;;5016217;28;20059;-63
2023/01/09 07:14:09;;;;;;;;;;;5.90;99.90;;;;;;5023211;28;20376;-62
2023/01/09 07:16:37;;;;;;;;;;;5.90;99.90;;;;;;5031690;28;19952;-62
2023/01/09 07:19:03;;;;;;;;;;;5.90;99.90;;;;;;5031653;28;19948;-63
2023/01/09 07:21:30;;;;;;;;;;;6.00;99.90;;;;;;5031701;28;19928;-65
2023/01/09 07:23:56;;;;;;;;;;;6.00;99.90;;;;;;5014323;28;19928;-59
2023/01/09 07:26:23;;;;;;;;;;;6.00;99.90;;;;;;5020710;28;19924;-60
2023/01/09 07:28:49;;;;;;;;;;;6.10;99.90;;;;;;5019792;28;19976;-62
2023/01/09 07:31:16;;;;;;;;;;;6.10;99.90;;;;;;5028444;28;19921;-60
2023/01/09 07:33:43;;;;;;;;;;;6.10;99.90;;;;;;5026420;28;19921;-62
2023/01/09 07:36:10;;;;;;;;;;;6.10;99.90;;;;;;5018334;28;19922;-67
2023/01/09 07:38:37;;;;;;;;;;;6.20;99.90;;;;;;5015397;28;19951;-65
2023/01/09 07:41:03;;;;;;;;;;;6.20;99.90;;;;;;5023377;28;19922;-65
2023/01/09 07:43:30;;;;;;;;;;;6.20;99.90;;;;;;5026455;28;19921;-67
2023/01/09 07:45:57;;;;;;;;;;;6.20;99.90;;;;;;5035161;28;20291;-67
2023/01/09 07:48:23;;;;;;;;;;;6.30;99.90;;;;;;5035052;28;19921;-67
2023/01/09 07:50:56;;;;;;;;;;;6.30;99.90;;;;;;5034931;28;20363;-67
2023/01/09 07:53:23;;;;;;;;;;;6.30;99.90;;;;;;5034676;28;19975;-66
2023/01/09 07:55:49;;;;;;;;;;;6.40;99.90;;;;;;5035234;28;19925;-67
2023/01/09 07:58:16;;;;;;;;;;;6.30;99.90;;;;;;5034432;28;19967;-67
2023/01/09 08:00:42;;;;;;;;;;;6.30;99.90;;;;;;5034742;28;19971;-61
2023/01/09 08:03:09;;;;;;;;;;;6.30;99.90;;;;;;5034098;28;19920;-61
2023/01/09 08:05:35;;;;;;;;;;;6.30;99.90;;;;;;5034306;28;19975;-62
2023/01/09 08:08:03;;;;;;;;;;;6.30;99.90;;;;;;5034431;28;20011;-62
2023/01/09 08:10:30;;;;;;;;;;;6.30;99.90;;;;;;5025451;28;19928;-62
2023/01/09 08:12:56;;;;;;;;;;;6.30;99.90;;;;;;5025716;28;19921;-61
2023/01/09 08:15:23;;;;;;;;;;;6.30;99.90;;;;;;5025877;28;19925;-62
2023/01/09 08:17:49;;;;;;;;;;;6.30;99.90;;;;;;5034120;28;20303;-63
2023/01/09 08:20:17;;;;;;;;;;;6.30;99.90;;;;;;5033041;28;19921;-64
2023/01/09 08:22:43;;;;;;;;;;;6.30;99.90;;;;;;5034116;28;19925;-59
2023/01/09 08:25:11;;;;;;;;;;;6.30;99.90;;;;;;5034192;28;19921;-61
2023/01/09 08:27:38;;;;;;;;;;;6.30;99.90;;;;;;5034021;28;20522;-61
2023/01/09 08:30:05;;;;;;;;;;;6.20;99.90;;;;;;5033854;28;19925;-63
2023/01/09 08:32:32;;;;;;;;;;;6.20;99.90;;;;;;5033549;28;19925;-62
2023/01/09 08:34:58;;;;;;;;;;;6.30;99.90;;;;;;5035224;28;20406;-62
2023/01/09 08:37:25;;;;;;;;;;;6.20;99.90;;;;;;5033294;28;20379;-61
2023/01/09 08:39:53;;;;;;;;;;;6.20;99.90;;;;;;5033974;28;20425;-60
2023/01/09 08:47:49;;;;;;;;;;;6.10;99.90;;;;;;5033269;28;20659;-62
2023/01/09 08:50:16;;;;;;;;;;;6.10;99.90;;;;;;5033998;28;19983;-58
2023/01/09 08:52:43;;;;;;;;;;;6.20;99.90;;;;;;5033585;28;19921;-62
2023/01/09 08:55:09;;;;;;;;;;;6.20;99.90;;;;;;5034159;28;19921;-60
2023/01/09 08:57:37;;;;;;;;;;;6.20;99.90;;;;;;5033636;28;19921;-57
2023/01/09 09:00:04;;;;;;;;;;;6.20;99.90;;;;;;5017607;28;19921;-57
2023/01/09 09:02:30;;;;;;;;;;;6.20;99.90;;;;;;5013834;28;19928;-62
2023/01/09 09:04:58;;;;;;;;;;;6.20;99.90;;;;;;5020039;28;19920;-62
2023/01/09 09:07:26;;;;;;;;;;;6.20;99.90;;;;;;5025309;28;19925;-62
2023/01/09 09:09:53;;;;;;;;;;;6.20;99.90;;;;;;5033018;28;19979;-61
2023/01/09 09:12:19;;;;;;;;;;;6.20;99.90;;;;;;5024802;28;20015;-62
2023/01/09 09:17:32;;;;;;;;;;;6.20;99.90;;;;;;5013566;28;19996;-62
2023/01/09 09:19:59;;;;;;;;;;;6.20;99.90;;;;;;5013584;28;19960;-62
2023/01/09 09:22:25;;;;;;;;;;;6.20;99.90;;;;;;5012989;28;20376;-62
2023/01/09 09:24:52;;;;;;;;;;;6.20;99.90;;;;;;5013273;28;19925;-62
2023/01/09 09:27:19;;;;;;;;;;;6.20;99.90;;;;;;5012843;28;19929;-61
2023/01/09 09:29:45;;;;;;;;;;;6.20;99.90;;;;;;5013493;28;19930;-62
2023/01/09 09:32:13;;;;;;;;;;;6.20;99.90;;;;;;5013111;28;19922;-63
2023/01/09 09:34:40;;;;;;;;;;;6.20;99.90;;;;;;5013349;28;19925;-62
2023/01/09 09:37:06;;;;;;;;;;;6.20;99.90;;;;;;5012825;28;19921;-61
2023/01/09 09:39:33;;;;;;;;;;;6.20;99.90;;;;;;5012798;28;19928;-61
2023/01/09 09:45:15;;;;;;;;;;;6.10;99.90;;;;;;5022553;28;19924;-62
2023/01/09 09:47:48;;;;;;;;;;;6.20;99.90;;;;;;5032475;28;20277;-61
2023/01/09 09:50:22;;;;;;;;;;;6.20;99.90;;;;;;5032642;28;19928;-61
2023/01/09 09:52:51;;;;;;;;;;;6.20;99.90;;;;;;5032414;28;19967;-57
2023/01/09 09:55:20;;;;;;;;;;;6.20;99.90;;;;;;5031803;28;19921;-61
2023/01/09 09:57:48;;;;;;;;;;;6.20;99.90;;;;;;5032479;28;19921;-62
2023/01/09 10:00:16;;;;;;;;;;;6.20;99.90;;;;;;5031058;28;19928;-62
2023/01/09 10:02:46;;;;;;;;;;;6.10;99.90;;;;;;5020954;28;20004;-63
2023/01/09 10:05:16;;;;;;;;;;;6.20;99.90;;;;;;5012296;28;19921;-61
2023/01/09 10:07:46;;;;;;;;;;;6.20;99.90;;;;;;5012172;28;20384;-63
2023/01/09 10:10:16;;;;;;;;;;;6.20;99.90;;;;;;5012164;28;20351;-65
2023/01/09 10:12:45;;;;;;;;;;;6.30;99.90;;;;;;5020043;28;20408;-64
2023/01/09 10:15:15;;;;;;;;;;;6.30;99.90;;;;;;5029186;28;19929;-61
2023/01/09 10:17:54;;;;;;;;;;;6.30;99.90;;;;;;5031805;28;19921;-59
2023/01/09 10:20:42;;;;;;;;;;;6.40;99.90;;;;;;5032272;28;19921;-61
2023/01/09 10:23:14;;;;;;;;;;;6.40;99.90;;;;;;5022880;28;19968;-64
2023/01/09 10:25:45;;;;;;;;;;;6.40;99.90;;;;;;5013106;28;19979;-61
2023/01/09 10:28:17;;;;;;;;;;;6.50;99.90;;;;;;5011843;28;19929;-61
2023/01/09 10:30:45;;;;;;;;;;;6.60;99.90;;;;;;5012347;28;20017;-61
2023/01/09 10:33:17;;;;;;;;;;;6.60;99.90;;;;;;5011798;28;19921;-61
2023/01/09 10:36:08;;;;;;;;;;;6.70;99.90;;;;;;5012136;28;19922;-61
2023/01/09 10:38:38;;;;;;;;;;;6.70;99.90;;;;;;4958347;28;19921;-60
2023/01/09 10:41:07;;;;;;;;;;;6.80;99.90;;;;;;5023670;28;20303;-63
2023/01/09 10:43:36;;;;;;;;;;;6.80;99.90;;;;;;5019740;28;20288;-62
2023/01/09 10:46:05;;;;;;;;;;;7.00;99.90;;;;;;5010761;28;19921;-58
2023/01/09 10:48:33;;;;;;;;;;;7.00;99.90;;;;;;5014791;28;20345;-65
2023/01/09 10:51:00;;;;;;;;;;;7.10;99.90;;;;;;5020193;28;19956;-57
2023/01/09 10:53:27;;;;;;;;;;;7.20;99.90;;;;;;5011944;28;19929;-58
2023/01/09 10:55:57;;;;;;;;;;;7.20;99.90;;;;;;5011653;28;20000;-57
2023/01/09 10:58:24;;;;;;;;;;;7.20;99.90;;;;;;5011848;28;20372;-63
2023/01/09 11:00:51;;;;;;;;;;;7.20;99.90;;;;;;5016884;28;19921;-64
2023/01/09 11:03:19;;;;;;;;;;;7.20;99.90;;;;;;5023669;28;19974;-62
2023/01/09 11:05:50;;;;;;;;;;;7.20;99.90;;;;;;5031290;28;19947;-62
2023/01/09 11:08:22;;;;;;;;;;;7.20;99.90;;;;;;5034660;28;20410;-60
2023/01/09 11:10:49;;;;;;;;;;;7.20;99.90;;;;;;5035434;28;20443;-63
2023/01/09 11:13:20;;;;;;;;;;;7.20;99.90;;;;;;5026051;28;19924;-60
2023/01/09 11:15:58;;;;;;;;;;;7.20;99.90;;;;;;5015889;28;19952;-61
2023/01/09 11:18:25;;;;;;;;;;;7.20;99.90;;;;;;5015755;28;19921;-63
2023/01/09 11:20:52;;;;;;;;;;;7.20;99.90;;;;;;5016833;28;20404;-61
2023/01/09 11:23:29;;;;;;;;;;;7.30;99.90;;;;;;5015782;28;19925;-61
2023/01/09 11:25:56;;;;;;;;;;;7.30;99.90;;;;;;5015004;28;19921;-67
2023/01/09 11:28:24;;;;;;;;;;;7.40;99.90;;;;;;5015199;28;19922;-68
2023/01/09 11:30:52;;;;;;;;;;;7.50;99.90;;;;;;5015648;28;19921;-67
2023/01/09 11:33:21;;;;;;;;;;;7.50;99.90;;;;;;5014593;28;19979;-66
2023/01/09 11:36:09;;;;;;;;;;;7.60;99.90;;;;;;5015466;28;19929;-67
2023/01/09 11:38:47;;;;;;;;;;;7.60;99.90;;;;;;5013599;28;19930;-67
2023/01/09 11:41:16;;;;;;;;;;;7.70;99.90;;;;;;5023813;28;19921;-67
2023/01/09 11:43:45;;;;;;;;;;;7.70;99.90;;;;;;5025965;28;20339;-68
2023/01/09 11:46:29;;;;;;;;;;;7.70;99.90;;;;;;5026566;28;19921;-65
2023/01/09 11:48:56;;;;;;;;;;;7.80;99.90;;;;;;5034921;28;19929;-66
2023/01/09 11:51:23;;;;;;;;;;;7.70;99.90;;;;;;5034853;28;19928;-67
2023/01/09 11:53:57;;;;;;;;;;;7.70;99.90;;;;;;5028392;28;20380;-66
2023/01/09 11:56:23;;;;;;;;;;;7.60;99.90;;;;;;5024693;28;19926;-67
2023/01/09 11:58:51;;;;;;;;;;;7.60;99.90;;;;;;5023723;28;19945;-66
2023/01/09 12:01:30;;;;;;;;;;;7.60;99.90;;;;;;5023942;28;19921;-66
2023/01/09 12:04:02;;;;;;;;;;;7.60;99.90;;;;;;5034865;28;19931;-66
2023/01/09 12:06:32;;;;;;;;;;;7.60;99.90;;;;;;5034245;28;20292;-68
2023/01/09 12:09:01;;;;;;;;;;;7.60;99.90;;;;;;5034735;28;19991;-71
2023/01/09 12:11:32;;;;;;;;;;;7.70;99.90;;;;;;5033049;28;19921;-62
2023/01/09 12:14:06;;;;;;;;;;;7.70;99.90;;;;;;5023466;28;19937;-58
2023/01/09 12:16:35;;;;;;;;;;;7.70;99.90;;;;;;5015464;28;20126;-60
2023/01/09 12:19:17;;;;;;;;;;;7.60;99.90;;;;;;5015415;28;20380;-59
2023/01/09 12:21:48;;;;;;;;;;;7.50;99.90;;;;;;5014761;28;19929;-64
2023/01/09 12:24:23;;;;;;;;;;;7.40;99.90;;;;;;5012470;28;19929;-61
2023/01/09 12:26:56;;;;;;;;;;;7.40;99.90;;;;;;5020533;28;19929;-62
2023/01/09 12:29:29;;;;;;;;;;;7.30;99.90;;;;;;5014348;28;19980;-62
2023/01/09 12:32:04;;;;;;;;;;;7.30;99.90;;;;;;5020719;28;19925;-63
2023/01/09 12:34:42;;;;;;;;;;;7.30;99.90;;;;;;5025286;28;19928;-61
2023/01/09 12:37:16;;;;;;;;;;;7.20;99.90;;;;;;5033912;28;19967;-63
2023/01/09 12:39:47;;;;;;;;;;;7.20;99.90;;;;;;5033631;28;19968;-58
2023/01/09 12:42:20;;;;;;;;;;;7.20;99.90;;;;;;5025741;28;19929;-60
2023/01/09 12:44:52;;;;;;;;;;;7.20;99.90;;;;;;5019656;28;19929;-59
2023/01/09 12:47:31;;;;;;;;;;;7.30;99.90;;;;;;5014335;28;20296;-59
2023/01/09 12:50:03;;;;;;;;;;;7.30;99.90;;;;;;5013626;28;20388;-60
2023/01/09 12:52:34;;;;;;;;;;;7.20;99.90;;;;;;5013924;28;19968;-60
2023/01/09 12:55:03;;;;;;;;;;;7.20;99.90;;;;;;5021801;28;20403;-61
2023/01/09 12:57:31;;;;;;;;;;;7.20;99.90;;;;;;5032329;28;19928;-59
2023/01/09 13:00:01;;;;;;;;;;;7.20;99.90;;;;;;5033738;28;20011;-60
2023/01/09 13:02:31;;;;;;;;;;;7.10;99.90;;;;;;5033897;28;20011;-60
2023/01/09 13:05:00;;;;;;;;;;;7.10;99.90;;;;;;5033681;28;19961;-57
2023/01/09 13:07:28;;;;;;;;;;;7.10;99.90;;;;;;5033116;28;19936;-60
2023/01/09 13:09:58;;;;;;;;;;;7.00;99.90;;;;;;5033365;28;19971;-57
2023/01/09 13:12:25;;;;;;;;;;;6.90;99.90;;;;;;5024952;28;19928;-58
2023/01/09 13:14:53;;;;;;;;;;;6.90;99.90;;;;;;5019439;28;19932;-61
2023/01/09 13:17:23;;;;;;;;;;;6.90;99.90;;;;;;5008981;28;19925;-58
2023/01/09 13:19:52;;;;;;;;;;;6.90;99.90;;;;;;5024134;28;19921;-58
2023/01/09 13:22:19;;;;;;;;;;;6.90;99.90;;;;;;5015583;28;20008;-61
2023/01/09 13:24:53;;;;;;;;;;;7.00;99.90;;;;;;5013050;28;19929;-60
2023/01/09 13:27:21;;;;;;;;;;;7.00;99.90;;;;;;5013320;28;19921;-64
2023/01/09 13:29:50;;;;;;;;;;;7.00;99.90;;;;;;5012500;28;19921;-61
2023/01/09 13:32:30;;;;;;;;;;;7.00;99.90;;;;;;5013881;28;19921;-60
2023/01/09 13:34:57;;;;;;;;;;;6.90;99.90;;;;;;5012885;28;19925;-61
2023/01/09 13:37:25;;;;;;;;;;;6.90;99.90;;;;;;5012597;28;19999;-65
2023/01/09 13:39:56;;;;;;;;;;;6.90;99.90;;;;;;5013093;28;19926;-64
2023/01/09 13:42:37;;;;;;;;;;;6.90;99.90;;;;;;5021040;28;20279;-63
2023/01/09 13:45:11;;;;;;;;;;;6.80;99.90;;;;;;5028501;28;19921;-64
2023/01/09 13:47:39;;;;;;;;;;;6.80;99.90;;;;;;5032096;28;19925;-63
2023/01/09 13:50:23;;;;;;;;;;;6.90;99.90;;;;;;5032842;28;19974;-62
2023/01/09 13:52:50;;;;;;;;;;;6.80;99.90;;;;;;5032224;28;19921;-64
2023/01/09 13:55:28;;;;;;;;;;;6.80;99.90;;;;;;5032489;28;19951;-64
2023/01/09 13:58:13;;;;;;;;;;;6.80;99.90;;;;;;5032218;28;19960;-64
2023/01/09 14:00:50;;;;;;;;;;;6.80;99.90;;;;;;5032498;28;19928;-63
2023/01/09 14:03:24;;;;;;;;;;;6.80;99.90;;;;;;5032636;28;20362;-66
2023/01/09 14:06:10;;;;;;;;;;;6.80;99.90;;;;;;5032202;28;19925;-64
2023/01/09 14:08:37;;;;;;;;;;;6.80;99.90;;;;;;5032722;28;19933;-65
2023/01/09 14:11:04;;;;;;;;;;;6.80;99.90;;;;;;5032203;28;19929;-66
2023/01/09 14:13:33;;;;;;;;;;;6.80;99.90;;;;;;5021091;28;20372;-66
2023/01/09 14:16:04;;;;;;;;;;;6.80;99.90;;;;;;5012303;28;19997;-66
2023/01/09 14:18:33;;;;;;;;;;;6.70;99.90;;;;;;5012697;28;19975;-65
2023/01/09 14:21:01;;;;;;;;;;;6.70;99.90;;;;;;5011965;28;19995;-65
2023/01/09 14:23:29;;;;;;;;;;;6.70;99.90;;;;;;5012475;28;19929;-65
2023/01/09 14:25:56;;;;;;;;;;;6.70;99.90;;;;;;5012268;28;19925;-64
2023/01/09 14:28:23;;;;;;;;;;;6.70;99.90;;;;;;5012003;28;20391;-63
2023/01/09 14:31:03;;;;;;;;;;;6.70;99.90;;;;;;5012361;28;19925;-65
2023/01/09 14:33:31;;;;;;;;;;;6.70;99.90;;;;;;5011850;28;19925;-63
2023/01/09 14:36:15;;;;;;;;;;;6.70;99.90;;;;;;5011925;28;19925;-65
2023/01/09 14:38:44;;;;;;;;;;;6.70;99.90;;;;;;5012051;28;19928;-63
2023/01/09 14:41:18;;;;;;;;;;;6.70;99.90;;;;;;5012207;28;19928;-63
2023/01/09 14:43:48;;;;;;;;;;;6.70;99.90;;;;;;5022743;28;20386;-66
2023/01/09 14:46:16;;;;;;;;;;;6.70;99.90;;;;;;5031953;28;20004;-66
2023/01/09 14:48:51;;;;;;;;;;;6.70;99.90;;;;;;5031821;28;19928;-65
2023/01/09 14:51:20;;;;;;;;;;;6.80;99.90;;;;;;5031829;28;20015;-65
2023/01/09 14:53:48;;;;;;;;;;;6.80;99.90;;;;;;5021812;28;20363;-61
2023/01/09 14:56:25;;;;;;;;;;;6.80;99.90;;;;;;5023013;28;20299;-62